sensor_id;sensor_type;location;lat;lon;timestamp;temperature;humidity
25046;DHT22;13044;49.304;12.840;2023-02-18T00:01:30;10.30;99.90
25046;DHT22;13044;49.304;12.840;2023-02-18T00:03:58;10.20;99.90
25046;DHT22;13044;49.304;12.840;2023-02-18T00:06:30;10.10;99.90
25046;DHT22;13044;49.304;12.840;2023-02-18T00:09:02;10.10;99.90
25046;DHT22;13044;49.304;12.840;2023-02-18T00:11:34;10.10;99.90
25046;DHT22;13044;49.304;12.840;2023-02-18T00:14:07;10.00;99.90
25046;DHT22;13044;49.304;12.840;2023-02-18T00:16:36;10.00;99.90
25046;DHT22;13044;49.304;12.840;2023-02-18T00:19:09;9.90;99.90
25046;DHT22;13044;49.304;12.840;2023-02-18T00:21:38;9.80;99.90
25046;DHT22;13044;49.304;12.840;2023-02-18T00:24:06;9.80;99.90
25046;DHT22;13044;49.304;12.840;2023-02-18T00:26:34;9.80;99.90
25046;DHT22;13044;49.304;12.840;2023-02-18T00:29:02;9.80;99.90
25046;DHT22;13044;49.304;12.840;2023-02-18T00:31:33;9.80;99.90
25046;DHT22;13044;49.304;12.840;2023-02-18T00:34:02;9.70;99.90
25046;DHT22;13044;49.304;12.840;2023-02-18T00:36:32;9.70;99.90
25046;DHT22;13044;49.304;12.840;2023-02-18T00:39:01;9.70;99.90
25046;DHT22;13044;49.304;12.840;2023-02-18T00:41:30;9.70;99.90
25046;DHT22;13044;49.304;12.840;2023-02-18T00:43:58;9.70;99.90
25046;DHT22;13044;49.304;12.840;2023-02-18T00:46:25;9.60;99.90
25046;DHT22;13044;49.304;12.840;2023-02-18T00:48:53;9.60;99.90
25046;DHT22;13044;49.304;12.840;2023-02-18T00:51:20;9.60;99.90
25046;DHT22;13044;49.304;12.840;2023-02-18T00:53:48;9.60;99.90
25046;DHT22;13044;49.304;12.840;2023-02-18T00:56:15;9.60;99.90
25046;DHT22;13044;49.304;12.840;2023-02-18T00:58:42;9.60;99.90
25046;DHT22;13044;49.304;12.840;2023-02-18T01:01:10;9.60;99.90
25046;DHT22;13044;49.304;12.840;2023-02-18T01:03:39;9.60;99.90
25046;DHT22;13044;49.304;12.840;2023-02-18T01:06:08;9.60;99.90
25046;DHT22;13044;49.304;12.840;2023-02-18T01:08:36;9.60;99.90
25046;DHT22;13044;49.304;12.840;2023-02-18T01:11:04;9.60;99.90
25046;DHT22;13044;49.304;12.840;2023-02-18T01:13:32;9.60;99.90
25046;DHT22;13044;49.304;12.840;2023-02-18T01:15:59;9.60;99.90
25046;DHT22;13044;49.304;12.840;2023-02-18T01:18:26;9.60;99.90
25046;DHT22;13044;49.304;12.840;2023-02-18T01:20:53;9.60;99.90
25046;DHT22;13044;49.304;12.840;2023-02-18T01:23:21;9.60;99.90
25046;DHT22;13044;49.304;12.840;2023-02-18T01:25:49;9.60;99.90
25046;DHT22;13044;49.304;12.840;2023-02-18T01:28:17;9.60;99.90
25046;DHT22;13044;49.304;12.840;2023-02-18T01:30:44;9.60;99.90
25046;DHT22;13044;49.304;12.840;2023-02-18T01:33:11;9.60;99.90
25046;DHT22;13044;49.304;12.840;2023-02-18T01:35:39;9.60;99.90
25046;DHT22;13044;49.304;12.840;2023-02-18T01:38:07;9.60;99.90
25046;DHT22;13044;49.304;12.840;2023-02-18T01:40:34;9.60;99.90
25046;DHT22;13044;49.304;12.840;2023-02-18T01:43:02;9.50;99.90
25046;DHT22;13044;49.304;12.840;2023-02-18T01:48:12;9.50;99.90
25046;DHT22;13044;49.304;12.840;2023-02-18T01:50:50;9.50;99.90
25046;DHT22;13044;49.304;12.840;2023-02-18T01:53:28;9.60;99.90
25046;DHT22;13044;49.304;12.840;2023-02-18T01:56:02;9.60;99.90
25046;DHT22;13044;49.304;12.840;2023-02-18T01:58:31;9.60;99.90
25046;DHT22;13044;49.304;12.840;2023-02-18T02:00:58;9.60;99.90
25046;DHT22;13044;49.304;12.840;2023-02-18T02:03:25;9.60;99.90
25046;DHT22;13044;49.304;12.840;2023-02-18T02:05:52;9.60;99.90
25046;DHT22;13044;49.304;12.840;2023-02-18T02:08:19;9.60;99.90
25046;DHT22;13044;49.304;12.840;2023-02-18T02:28:25;9.70;99.90
25046;DHT22;13044;49.304;12.840;2023-02-18T02:45:55;9.60;99.90
25046;DHT22;13044;49.304;12.840;2023-02-18T02:48:35;9.50;99.90
25046;DHT22;13044;49.304;12.840;2023-02-18T02:53:53;9.50;99.90
25046;DHT22;13044;49.304;12.840;2023-02-18T02:56:24;9.50;99.90
25046;DHT22;13044;49.304;12.840;2023-02-18T02:59:03;9.60;99.90
25046;DHT22;13044;49.304;12.840;2023-02-18T03:13:17;9.50;99.90
25046;DHT22;13044;49.304;12.840;2023-02-18T03:24:29;9.60;99.90
25046;DHT22;13044;49.304;12.840;2023-02-18T03:27:05;9.60;99.90
25046;DHT22;13044;49.304;12.840;2023-02-18T03:29:36;9.60;99.90
25046;DHT22;13044;49.304;12.840;2023-02-18T03:32:06;9.60;99.90
25046;DHT22;13044;49.304;12.840;2023-02-18T03:34:40;9.60;99.90
25046;DHT22;13044;49.304;12.840;2023-02-18T03:37:09;9.60;99.90
25046;DHT22;13044;49.304;12.840;2023-02-18T03:39:40;9.70;99.90
25046;DHT22;13044;49.304;12.840;2023-02-18T03:42:08;9.60;99.90
25046;DHT22;13044;49.304;12.840;2023-02-18T03:44:34;9.60;99.90
25046;DHT22;13044;49.304;12.840;2023-02-18T03:47:01;9.60;99.90
25046;DHT22;13044;49.304;12.840;2023-02-18T03:49:28;9.60;99.90
25046;DHT22;13044;49.304;12.840;2023-02-18T03:51:55;9.60;99.90
25046;DHT22;13044;49.304;12.840;2023-02-18T03:54:22;9.70;99.90
25046;DHT22;13044;49.304;12.840;2023-02-18T03:56:48;9.60;99.90
25046;DHT22;13044;49.304;12.840;2023-02-18T03:59:15;9.60;99.90
25046;DHT22;13044;49.304;12.840;2023-02-18T04:01:42;9.60;99.90
25046;DHT22;13044;49.304;12.840;2023-02-18T04:04:09;9.60;99.90
25046;DHT22;13044;49.304;12.840;2023-02-18T04:06:36;9.60;99.90
25046;DHT22;13044;49.304;12.840;2023-02-18T04:09:03;9.60;99.90
25046;DHT22;13044;49.304;12.840;2023-02-18T04:11:38;9.70;99.90
25046;DHT22;13044;49.304;12.840;2023-02-18T04:14:07;9.70;99.90
25046;DHT22;13044;49.304;12.840;2023-02-18T04:16:33;9.70;99.90
25046;DHT22;13044;49.304;12.840;2023-02-18T04:19:00;9.70;99.90
25046;DHT22;13044;49.304;12.840;2023-02-18T04:21:27;9.60;99.90
25046;DHT22;13044;49.304;12.840;2023-02-18T04:23:54;9.70;99.90
25046;DHT22;13044;49.304;12.840;2023-02-18T04:26:21;9.70;99.90
25046;DHT22;13044;49.304;12.840;2023-02-18T04:28:48;9.70;99.90
25046;DHT22;13044;49.304;12.840;2023-02-18T04:31:15;9.70;99.90
25046;DHT22;13044;49.304;12.840;2023-02-18T04:33:42;9.70;99.90
25046;DHT22;13044;49.304;12.840;2023-02-18T04:36:08;9.70;99.90
25046;DHT22;13044;49.304;12.840;2023-02-18T04:38:36;9.70;99.90
25046;DHT22;13044;49.304;12.840;2023-02-18T04:41:03;9.70;99.90
25046;DHT22;13044;49.304;12.840;2023-02-18T04:43:30;9.60;99.90
25046;DHT22;13044;49.304;12.840;2023-02-18T04:45:56;9.60;99.90
25046;DHT22;13044;49.304;12.840;2023-02-18T04:48:23;9.60;99.90
25046;DHT22;13044;49.304;12.840;2023-02-18T04:50:50;9.60;99.90
25046;DHT22;13044;49.304;12.840;2023-02-18T04:53:17;9.60;99.90
25046;DHT22;13044;49.304;12.840;2023-02-18T04:55:49;9.80;99.90
25046;DHT22;13044;49.304;12.840;2023-02-18T04:58:17;9.70;99.90
25046;DHT22;13044;49.304;12.840;2023-02-18T05:00:45;9.80;99.90
25046;DHT22;13044;49.304;12.840;2023-02-18T05:03:13;9.80;99.90
25046;DHT22;13044;49.304;12.840;2023-02-18T05:05:39;9.90;99.90
25046;DHT22;13044;49.304;12.840;2023-02-18T05:08:07;9.90;99.90
25046;DHT22;13044;49.304;12.840;2023-02-18T05:10:34;9.80;99.90
25046;DHT22;13044;49.304;12.840;2023-02-18T05:13:03;9.90;99.90
25046;DHT22;13044;49.304;12.840;2023-02-18T05:15:30;9.90;99.90
25046;DHT22;13044;49.304;12.840;2023-02-18T05:17:56;9.90;99.90
25046;DHT22;13044;49.304;12.840;2023-02-18T05:20:23;9.80;99.90
25046;DHT22;13044;49.304;12.840;2023-02-18T05:22:50;9.80;99.90
25046;DHT22;13044;49.304;12.840;2023-02-18T05:25:17;9.80;99.90
25046;DHT22;13044;49.304;12.840;2023-02-18T05:27:44;9.90;99.90
25046;DHT22;13044;49.304;12.840;2023-02-18T05:30:11;9.80;99.90
25046;DHT22;13044;49.304;12.840;2023-02-18T05:32:38;9.80;99.90
25046;DHT22;13044;49.304;12.840;2023-02-18T05:35:05;9.80;99.90
25046;DHT22;13044;49.304;12.840;2023-02-18T05:37:32;9.80;99.90
25046;DHT22;13044;49.304;12.840;2023-02-18T05:39:59;9.80;99.90
25046;DHT22;13044;49.304;12.840;2023-02-18T05:42:26;9.80;99.90
25046;DHT22;13044;49.304;12.840;2023-02-18T05:44:53;9.80;99.90
25046;DHT22;13044;49.304;12.840;2023-02-18T05:47:20;9.70;99.90
25046;DHT22;13044;49.304;12.840;2023-02-18T05:49:47;9.70;99.90
25046;DHT22;13044;49.304;12.840;2023-02-18T05:52:13;9.70;99.90
25046;DHT22;13044;49.304;12.840;2023-02-18T05:54:40;9.70;99.90
25046;DHT22;13044;49.304;12.840;2023-02-18T05:57:07;9.70;99.90
25046;DHT22;13044;49.304;12.840;2023-02-18T05:59:34;9.70;99.90
25046;DHT22;13044;49.304;12.840;2023-02-18T06:02:01;9.80;99.90
25046;DHT22;13044;49.304;12.840;2023-02-18T06:04:28;9.80;99.90
25046;DHT22;13044;49.304;12.840;2023-02-18T06:06:55;9.80;99.90
25046;DHT22;13044;49.304;12.840;2023-02-18T06:09:21;9.80;99.90
25046;DHT22;13044;49.304;12.840;2023-02-18T06:14:17;9.90;99.90
25046;DHT22;13044;49.304;12.840;2023-02-18T06:16:43;9.80;99.90
25046;DHT22;13044;49.304;12.840;2023-02-18T06:19:10;9.90;99.90
25046;DHT22;13044;49.304;12.840;2023-02-18T06:21:37;9.90;99.90
25046;DHT22;13044;49.304;12.840;2023-02-18T06:24:04;9.80;99.90
25046;DHT22;13044;49.304;12.840;2023-02-18T06:26:32;9.80;99.90
25046;DHT22;13044;49.304;12.840;2023-02-18T06:28:59;9.80;99.90
25046;DHT22;13044;49.304;12.840;2023-02-18T06:31:26;9.90;99.90
25046;DHT22;13044;49.304;12.840;2023-02-18T06:33:53;9.90;99.90
25046;DHT22;13044;49.304;12.840;2023-02-18T06:36:20;9.90;99.90
25046;DHT22;13044;49.304;12.840;2023-02-18T06:38:47;9.90;99.90
25046;DHT22;13044;49.304;12.840;2023-02-18T06:41:14;9.90;99.90
25046;DHT22;13044;49.304;12.840;2023-02-18T06:43:41;9.90;99.90
25046;DHT22;13044;49.304;12.840;2023-02-18T06:46:08;9.90;99.90
25046;DHT22;13044;49.304;12.840;2023-02-18T06:48:35;9.90;99.90
25046;DHT22;13044;49.304;12.840;2023-02-18T06:51:04;9.90;99.90
25046;DHT22;13044;49.304;12.840;2023-02-18T06:53:31;9.90;99.90
25046;DHT22;13044;49.304;12.840;2023-02-18T06:55:58;9.90;99.90
25046;DHT22;13044;49.304;12.840;2023-02-18T06:58:25;9.80;99.90
25046;DHT22;13044;49.304;12.840;2023-02-18T07:00:52;9.80;99.90
25046;DHT22;13044;49.304;12.840;2023-02-18T07:03:19;9.80;99.90
25046;DHT22;13044;49.304;12.840;2023-02-18T07:05:46;9.80;99.90
25046;DHT22;13044;49.304;12.840;2023-02-18T07:08:13;9.80;99.90
25046;DHT22;13044;49.304;12.840;2023-02-18T07:10:40;9.80;99.90
25046;DHT22;13044;49.304;12.840;2023-02-18T07:13:07;9.80;99.90
25046;DHT22;13044;49.304;12.840;2023-02-18T07:15:34;9.80;99.90
25046;DHT22;13044;49.304;12.840;2023-02-18T07:18:01;9.80;99.90
25046;DHT22;13044;49.304;12.840;2023-02-18T07:20:28;9.80;99.90
25046;DHT22;13044;49.304;12.840;2023-02-18T07:22:55;9.80;99.90
25046;DHT22;13044;49.304;12.840;2023-02-18T07:25:21;9.80;99.90
25046;DHT22;13044;49.304;12.840;2023-02-18T07:27:49;9.80;99.90
25046;DHT22;13044;49.304;12.840;2023-02-18T07:30:17;9.80;99.90
25046;DHT22;13044;49.304;12.840;2023-02-18T07:32:45;9.80;99.90
25046;DHT22;13044;49.304;12.840;2023-02-18T07:35:13;9.90;99.90
25046;DHT22;13044;49.304;12.840;2023-02-18T07:37:47;9.90;99.90
25046;DHT22;13044;49.304;12.840;2023-02-18T07:40:18;9.90;99.90
25046;DHT22;13044;49.304;12.840;2023-02-18T07:42:46;9.90;99.90
25046;DHT22;13044;49.304;12.840;2023-02-18T07:45:13;9.90;99.90
25046;DHT22;13044;49.304;12.840;2023-02-18T07:47:40;9.90;99.90
25046;DHT22;13044;49.304;12.840;2023-02-18T07:50:08;10.00;99.90
25046;DHT22;13044;49.304;12.840;2023-02-18T07:52:36;9.90;99.90
25046;DHT22;13044;49.304;12.840;2023-02-18T07:55:03;9.90;99.90
25046;DHT22;13044;49.304;12.840;2023-02-18T07:57:30;9.90;99.90
25046;DHT22;13044;49.304;12.840;2023-02-18T07:59:57;9.90;99.90
25046;DHT22;13044;49.304;12.840;2023-02-18T08:02:24;9.90;99.90
25046;DHT22;13044;49.304;12.840;2023-02-18T08:04:51;9.90;99.90
25046;DHT22;13044;49.304;12.840;2023-02-18T08:07:19;9.90;99.90
25046;DHT22;13044;49.304;12.840;2023-02-18T08:09:47;9.90;99.90
25046;DHT22;13044;49.304;12.840;2023-02-18T08:12:16;9.90;99.90
25046;DHT22;13044;49.304;12.840;2023-02-18T08:14:43;9.90;99.90
25046;DHT22;13044;49.304;12.840;2023-02-18T08:17:09;9.90;99.90
25046;DHT22;13044;49.304;12.840;2023-02-18T08:19:36;9.90;99.90
25046;DHT22;13044;49.304;12.840;2023-02-18T08:22:03;9.90;99.90
25046;DHT22;13044;49.304;12.840;2023-02-18T08:24:30;9.90;99.90
25046;DHT22;13044;49.304;12.840;2023-02-18T08:26:57;9.80;99.90
25046;DHT22;13044;49.304;12.840;2023-02-18T08:29:27;9.80;99.90
25046;DHT22;13044;49.304;12.840;2023-02-18T08:31:54;9.70;99.90
25046;DHT22;13044;49.304;12.840;2023-02-18T08:34:23;9.70;99.90
25046;DHT22;13044;49.304;12.840;2023-02-18T08:36:50;9.70;99.90
25046;DHT22;13044;49.304;12.840;2023-02-18T08:39:17;9.60;99.90
25046;DHT22;13044;49.304;12.840;2023-02-18T08:41:44;9.60;99.90
25046;DHT22;13044;49.304;12.840;2023-02-18T08:44:10;9.60;99.90
25046;DHT22;13044;49.304;12.840;2023-02-18T08:46:37;9.70;99.90
25046;DHT22;13044;49.304;12.840;2023-02-18T08:49:05;9.60;99.90
25046;DHT22;13044;49.304;12.840;2023-02-18T08:51:32;9.60;99.90
25046;DHT22;13044;49.304;12.840;2023-02-18T08:53:59;9.60;99.90
25046;DHT22;13044;49.304;12.840;2023-02-18T08:56:26;9.60;99.90
25046;DHT22;13044;49.304;12.840;2023-02-18T08:58:53;9.60;99.90
25046;DHT22;13044;49.304;12.840;2023-02-18T09:01:20;9.60;99.90
25046;DHT22;13044;49.304;12.840;2023-02-18T09:03:47;9.60;99.90
25046;DHT22;13044;49.304;12.840;2023-02-18T09:06:14;9.60;99.90
25046;DHT22;13044;49.304;12.840;2023-02-18T09:08:41;9.60;99.90
25046;DHT22;13044;49.304;12.840;2023-02-18T09:11:10;9.50;99.90
25046;DHT22;13044;49.304;12.840;2023-02-18T09:13:37;9.50;99.90
25046;DHT22;13044;49.304;12.840;2023-02-18T09:16:14;9.40;99.90
25046;DHT22;13044;49.304;12.840;2023-02-18T09:18:44;9.50;99.90
25046;DHT22;13044;49.304;12.840;2023-02-18T09:21:14;9.40;99.90
25046;DHT22;13044;49.304;12.840;2023-02-18T09:23:42;9.40;99.90
25046;DHT22;13044;49.304;12.840;2023-02-18T09:26:12;9.50;99.90
25046;DHT22;13044;49.304;12.840;2023-02-18T09:28:40;9.50;99.90
25046;DHT22;13044;49.304;12.840;2023-02-18T09:31:16;9.50;99.90
25046;DHT22;13044;49.304;12.840;2023-02-18T09:33:51;9.60;99.90
25046;DHT22;13044;49.304;12.840;2023-02-18T09:36:19;9.60;99.90
25046;DHT22;13044;49.304;12.840;2023-02-18T09:38:46;9.60;99.90
25046;DHT22;13044;49.304;12.840;2023-02-18T09:43:58;9.60;99.90
25046;DHT22;13044;49.304;12.840;2023-02-18T09:49:16;9.70;99.90
25046;DHT22;13044;49.304;12.840;2023-02-18T09:51:46;9.80;99.90
25046;DHT22;13044;49.304;12.840;2023-02-18T09:54:15;9.80;99.90
25046;DHT22;13044;49.304;12.840;2023-02-18T09:56:44;9.90;99.90
25046;DHT22;13044;49.304;12.840;2023-02-18T09:59:18;10.00;99.90
25046;DHT22;13044;49.304;12.840;2023-02-18T10:01:48;10.10;99.90
25046;DHT22;13044;49.304;12.840;2023-02-18T10:07:00;10.10;99.90
25046;DHT22;13044;49.304;12.840;2023-02-18T10:09:33;10.00;99.90
25046;DHT22;13044;49.304;12.840;2023-02-18T10:12:15;10.10;99.90
25046;DHT22;13044;49.304;12.840;2023-02-18T10:14:53;10.10;99.90
25046;DHT22;13044;49.304;12.840;2023-02-18T10:17:24;10.20;99.90
25046;DHT22;13044;49.304;12.840;2023-02-18T10:19:53;10.20;99.90
25046;DHT22;13044;49.304;12.840;2023-02-18T10:22:23;10.20;99.90
25046;DHT22;13044;49.304;12.840;2023-02-18T10:25:03;10.20;99.90
25046;DHT22;13044;49.304;12.840;2023-02-18T10:27:35;10.20;99.90
25046;DHT22;13044;49.304;12.840;2023-02-18T10:30:26;10.20;99.90
25046;DHT22;13044;49.304;12.840;2023-02-18T10:41:59;10.60;99.90
25046;DHT22;13044;49.304;12.840;2023-02-18T10:51:05;10.90;99.90
25046;DHT22;13044;49.304;12.840;2023-02-18T10:53:47;11.00;99.90
25046;DHT22;13044;49.304;12.840;2023-02-18T10:56:37;11.00;99.90
25046;DHT22;13044;49.304;12.840;2023-02-18T11:01:39;11.20;99.90
25046;DHT22;13044;49.304;12.840;2023-02-18T11:04:16;11.30;99.90
25046;DHT22;13044;49.304;12.840;2023-02-18T11:06:52;11.40;99.90
25046;DHT22;13044;49.304;12.840;2023-02-18T11:09:31;11.50;99.90
25046;DHT22;13044;49.304;12.840;2023-02-18T11:12:03;11.50;99.90
25046;DHT22;13044;49.304;12.840;2023-02-18T11:14:46;11.60;99.90
25046;DHT22;13044;49.304;12.840;2023-02-18T11:17:25;11.60;99.90
25046;DHT22;13044;49.304;12.840;2023-02-18T11:19:58;11.70;99.90
25046;DHT22;13044;49.304;12.840;2023-02-18T11:22:34;11.80;99.90
25046;DHT22;13044;49.304;12.840;2023-02-18T11:25:22;11.80;99.90
25046;DHT22;13044;49.304;12.840;2023-02-18T11:28:03;12.00;99.90
25046;DHT22;13044;49.304;12.840;2023-02-18T11:30:43;12.10;99.90
25046;DHT22;13044;49.304;12.840;2023-02-18T11:33:22;12.10;99.90
25046;DHT22;13044;49.304;12.840;2023-02-18T11:35:54;12.10;99.90
25046;DHT22;13044;49.304;12.840;2023-02-18T11:38:28;12.10;99.90
25046;DHT22;13044;49.304;12.840;2023-02-18T11:41:09;12.10;99.90
25046;DHT22;13044;49.304;12.840;2023-02-18T11:43:41;12.10;99.90
25046;DHT22;13044;49.304;12.840;2023-02-18T11:46:18;12.10;99.90
25046;DHT22;13044;49.304;12.840;2023-02-18T11:48:47;12.20;99.90
25046;DHT22;13044;49.304;12.840;2023-02-18T11:54:04;12.20;99.90
25046;DHT22;13044;49.304;12.840;2023-02-18T11:56:37;12.20;99.90
25046;DHT22;13044;49.304;12.840;2023-02-18T11:59:04;12.20;99.90
25046;DHT22;13044;49.304;12.840;2023-02-18T12:01:45;12.30;99.90
25046;DHT22;13044;49.304;12.840;2023-02-18T12:04:18;12.50;99.90
25046;DHT22;13044;49.304;12.840;2023-02-18T12:09:35;12.50;99.90
25046;DHT22;13044;49.304;12.840;2023-02-18T12:12:29;12.60;99.90
25046;DHT22;13044;49.304;12.840;2023-02-18T12:15:03;12.60;99.90
25046;DHT22;13044;49.304;12.840;2023-02-18T12:23:37;12.60;99.90
25046;DHT22;13044;49.304;12.840;2023-02-18T12:32:27;12.70;99.90
25046;DHT22;13044;49.304;12.840;2023-02-18T12:35:03;12.60;99.90
25046;DHT22;13044;49.304;12.840;2023-02-18T12:55:43;12.60;99.90
25046;DHT22;13044;49.304;12.840;2023-02-18T13:01:32;12.60;99.90
25046;DHT22;13044;49.304;12.840;2023-02-18T13:12:29;12.50;99.90
25046;DHT22;13044;49.304;12.840;2023-02-18T13:15:33;12.50;99.90
25046;DHT22;13044;49.304;12.840;2023-02-18T13:18:11;12.40;99.90
25046;DHT22;13044;49.304;12.840;2023-02-18T13:20:54;12.40;99.90
25046;DHT22;13044;49.304;12.840;2023-02-18T13:23:53;12.50;99.90
25046;DHT22;13044;49.304;12.840;2023-02-18T13:26:28;12.50;99.90
25046;DHT22;13044;49.304;12.840;2023-02-18T13:35:26;12.40;99.90
25046;DHT22;13044;49.304;12.840;2023-02-18T13:38:16;12.40;99.90
25046;DHT22;13044;49.304;12.840;2023-02-18T13:41:12;12.40;99.90
25046;DHT22;13044;49.304;12.840;2023-02-18T13:43:40;12.50;99.90
25046;DHT22;13044;49.304;12.840;2023-02-18T13:51:30;12.70;99.90
25046;DHT22;13044;49.304;12.840;2023-02-18T13:57:00;12.80;99.90
25046;DHT22;13044;49.304;12.840;2023-02-18T13:59:38;12.90;99.90
25046;DHT22;13044;49.304;12.840;2023-02-18T14:10:00;12.90;99.90
25046;DHT22;13044;49.304;12.840;2023-02-18T14:13:01;12.80;99.90
25046;DHT22;13044;49.304;12.840;2023-02-18T14:15:56;12.90;99.90
25046;DHT22;13044;49.304;12.840;2023-02-18T14:18:31;12.80;99.90
25046;DHT22;13044;49.304;12.840;2023-02-18T14:28:52;12.80;99.90
25046;DHT22;13044;49.304;12.840;2023-02-18T14:31:34;12.80;99.90
25046;DHT22;13044;49.304;12.840;2023-02-18T14:40:33;12.80;99.90
25046;DHT22;13044;49.304;12.840;2023-02-18T14:46:02;12.70;99.90
25046;DHT22;13044;49.304;12.840;2023-02-18T14:48:42;12.70;99.90
25046;DHT22;13044;49.304;12.840;2023-02-18T14:51:20;12.60;99.90
25046;DHT22;13044;49.304;12.840;2023-02-18T14:53:51;12.60;99.90
25046;DHT22;13044;49.304;12.840;2023-02-18T14:56:19;12.50;99.90
25046;DHT22;13044;49.304;12.840;2023-02-18T14:58:55;12.50;99.90
25046;DHT22;13044;49.304;12.840;2023-02-18T15:01:27;12.50;99.90
25046;DHT22;13044;49.304;12.840;2023-02-18T15:03:56;12.50;99.90
25046;DHT22;13044;49.304;12.840;2023-02-18T15:06:32;12.50;99.90
25046;DHT22;13044;49.304;12.840;2023-02-18T15:09:18;12.40;99.90
25046;DHT22;13044;49.304;12.840;2023-02-18T15:12:03;12.50;99.90
25046;DHT22;13044;49.304;12.840;2023-02-18T15:14:37;12.50;99.90
25046;DHT22;13044;49.304;12.840;2023-02-18T15:17:12;12.40;99.90
25046;DHT22;13044;49.304;12.840;2023-02-18T15:19:46;12.50;99.90
25046;DHT22;13044;49.304;12.840;2023-02-18T15:22:22;12.60;99.90
25046;DHT22;13044;49.304;12.840;2023-02-18T15:24:53;12.40;99.90
25046;DHT22;13044;49.304;12.840;2023-02-18T15:27:28;12.40;99.90
25046;DHT22;13044;49.304;12.840;2023-02-18T15:30:17;12.40;99.90
25046;DHT22;13044;49.304;12.840;2023-02-18T15:32:52;12.20;99.90
25046;DHT22;13044;49.304;12.840;2023-02-18T15:35:25;12.10;99.90
25046;DHT22;13044;49.304;12.840;2023-02-18T15:37:59;12.10;99.90
25046;DHT22;13044;49.304;12.840;2023-02-18T15:40:30;12.30;99.90
25046;DHT22;13044;49.304;12.840;2023-02-18T15:43:03;12.30;99.90
25046;DHT22;13044;49.304;12.840;2023-02-18T15:45:37;12.10;99.90
25046;DHT22;13044;49.304;12.840;2023-02-18T15:48:33;12.00;99.90
25046;DHT22;13044;49.304;12.840;2023-02-18T15:51:13;12.00;99.90
25046;DHT22;13044;49.304;12.840;2023-02-18T15:53:45;11.90;99.90
25046;DHT22;13044;49.304;12.840;2023-02-18T15:56:21;12.00;99.90
25046;DHT22;13044;49.304;12.840;2023-02-18T16:01:54;12.00;99.90
25046;DHT22;13044;49.304;12.840;2023-02-18T16:04:30;11.80;99.90
25046;DHT22;13044;49.304;12.840;2023-02-18T16:07:02;11.60;99.90
25046;DHT22;13044;49.304;12.840;2023-02-18T16:10:19;11.70;99.90
25046;DHT22;13044;49.304;12.840;2023-02-18T16:12:53;11.70;99.90
25046;DHT22;13044;49.304;12.840;2023-02-18T16:15:26;11.70;99.90
25046;DHT22;13044;49.304;12.840;2023-02-18T16:17:55;11.70;99.90
25046;DHT22;13044;49.304;12.840;2023-02-18T16:23:10;11.80;99.90
25046;DHT22;13044;49.304;12.840;2023-02-18T16:25:49;11.80;99.90
25046;DHT22;13044;49.304;12.840;2023-02-18T16:28:21;11.80;99.90
25046;DHT22;13044;49.304;12.840;2023-02-18T16:30:53;11.80;99.90
25046;DHT22;13044;49.304;12.840;2023-02-18T16:33:21;11.80;99.90
25046;DHT22;13044;49.304;12.840;2023-02-18T16:35:48;11.60;99.90
25046;DHT22;13044;49.304;12.840;2023-02-18T16:38:23;11.70;99.90
25046;DHT22;13044;49.304;12.840;2023-02-18T16:40:53;11.50;99.90
25046;DHT22;13044;49.304;12.840;2023-02-18T16:43:22;11.50;99.90
25046;DHT22;13044;49.304;12.840;2023-02-18T16:45:55;11.30;99.90
25046;DHT22;13044;49.304;12.840;2023-02-18T16:51:02;11.30;99.90
25046;DHT22;13044;49.304;12.840;2023-02-18T16:53:32;11.20;99.90
25046;DHT22;13044;49.304;12.840;2023-02-18T16:55:59;11.40;99.90
25046;DHT22;13044;49.304;12.840;2023-02-18T16:58:28;11.20;99.90
25046;DHT22;13044;49.304;12.840;2023-02-18T17:00:56;11.20;99.90
25046;DHT22;13044;49.304;12.840;2023-02-18T17:03:24;11.10;99.90
25046;DHT22;13044;49.304;12.840;2023-02-18T17:05:51;11.30;99.90
25046;DHT22;13044;49.304;12.840;2023-02-18T17:08:21;11.30;99.90
25046;DHT22;13044;49.304;12.840;2023-02-18T17:11:00;11.10;99.90
25046;DHT22;13044;49.304;12.840;2023-02-18T17:13:29;11.00;99.90
25046;DHT22;13044;49.304;12.840;2023-02-18T17:15:58;10.90;99.90
25046;DHT22;13044;49.304;12.840;2023-02-18T17:18:25;10.70;99.90
25046;DHT22;13044;49.304;12.840;2023-02-18T17:20:53;10.70;99.90
25046;DHT22;13044;49.304;12.840;2023-02-18T17:23:22;10.60;99.90
25046;DHT22;13044;49.304;12.840;2023-02-18T17:25:51;10.60;99.90
25046;DHT22;13044;49.304;12.840;2023-02-18T17:28:19;10.70;99.90
25046;DHT22;13044;49.304;12.840;2023-02-18T17:30:55;10.70;99.90
25046;DHT22;13044;49.304;12.840;2023-02-18T17:33:23;10.60;99.90
25046;DHT22;13044;49.304;12.840;2023-02-18T17:35:51;10.60;99.90
25046;DHT22;13044;49.304;12.840;2023-02-18T17:38:19;10.60;99.90
25046;DHT22;13044;49.304;12.840;2023-02-18T17:40:47;10.50;99.90
25046;DHT22;13044;49.304;12.840;2023-02-18T17:43:17;10.40;99.90
25046;DHT22;13044;49.304;12.840;2023-02-18T17:45:52;10.40;99.90
25046;DHT22;13044;49.304;12.840;2023-02-18T17:48:24;10.40;99.90
25046;DHT22;13044;49.304;12.840;2023-02-18T17:50:51;10.40;99.90
25046;DHT22;13044;49.304;12.840;2023-02-18T17:53:20;10.50;99.90
25046;DHT22;13044;49.304;12.840;2023-02-18T17:55:48;10.40;99.90
25046;DHT22;13044;49.304;12.840;2023-02-18T17:58:16;10.30;99.90
25046;DHT22;13044;49.304;12.840;2023-02-18T18:00:48;10.20;99.90
25046;DHT22;13044;49.304;12.840;2023-02-18T18:03:19;10.30;99.90
25046;DHT22;13044;49.304;12.840;2023-02-18T18:05:49;10.40;99.90
25046;DHT22;13044;49.304;12.840;2023-02-18T18:08:19;10.40;99.90
25046;DHT22;13044;49.304;12.840;2023-02-18T18:10:53;10.40;99.90
25046;DHT22;13044;49.304;12.840;2023-02-18T18:13:25;10.40;99.90
25046;DHT22;13044;49.304;12.840;2023-02-18T18:15:54;10.40;99.90
25046;DHT22;13044;49.304;12.840;2023-02-18T18:18:24;10.40;99.90
25046;DHT22;13044;49.304;12.840;2023-02-18T18:20:53;10.40;99.90
25046;DHT22;13044;49.304;12.840;2023-02-18T18:23:22;10.40;99.90
25046;DHT22;13044;49.304;12.840;2023-02-18T18:25:51;10.50;99.90
25046;DHT22;13044;49.304;12.840;2023-02-18T18:28:19;10.50;99.90
25046;DHT22;13044;49.304;12.840;2023-02-18T18:30:48;10.40;99.90
25046;DHT22;13044;49.304;12.840;2023-02-18T18:35:49;10.40;99.90
25046;DHT22;13044;49.304;12.840;2023-02-18T18:38:18;10.30;99.90
25046;DHT22;13044;49.304;12.840;2023-02-18T18:40:47;10.30;99.90
25046;DHT22;13044;49.304;12.840;2023-02-18T18:43:21;10.20;99.90
25046;DHT22;13044;49.304;12.840;2023-02-18T18:45:58;10.20;99.90
25046;DHT22;13044;49.304;12.840;2023-02-18T18:48:26;10.20;99.90
25046;DHT22;13044;49.304;12.840;2023-02-18T18:50:54;10.30;99.90
25046;DHT22;13044;49.304;12.840;2023-02-18T18:53:31;10.20;99.90